FW3598 Vancouver CA current weather conditions

sailwx.info

Wind from 105 at 3 knots gusting 6

Air temperature 16.1° C
Dewpoint 12.7° C

Last reported at 2020-Jul-08 04:01 UTC.
Time now 2020-Jul-08 05:00 UTC

Location: N 49°13' W 123°04'.
View on Google Maps.

See reports from other nearby stations

  
Tides and Currents Weather Stations Pressure Air Temp Water Temp Dewpoint Dewpoint Depression Visibility Wind Speed Wind Dir Waves Ship Positions
date/time (UTC)wind fromknots sea level pressurealtimeterstation pressurevisibilityair tempwater tempwave heightnotes
2020-Jul-08 04:01 105 3 gusting 6 16.1
2020-Jul-08 03:51 104 2 gusting 4 16.1
2020-Jul-08 03:41 107 3 gusting 5 16.7
2020-Jul-08 03:31 095 2 gusting 4 16.7
2020-Jul-08 03:21 107 2 gusting 5 17.2
2020-Jul-08 03:11 110 2 gusting 4 17.2
2020-Jul-08 03:01 100 2 gusting 4 17.2
2020-Jul-08 02:51 108 1 gusting 3 17.8
2020-Jul-08 02:41 107 1 gusting 3 17.8
2020-Jul-08 02:31 103 2 gusting 4 17.8
2020-Jul-08 02:21 086 1 gusting 3 17.8
2020-Jul-08 02:11 128 2 gusting 3 17.8
2020-Jul-08 02:01 126 2 gusting 4 18.3
2020-Jul-08 01:51 113 2 gusting 4 18.3
2020-Jul-08 01:41 127 2 gusting 4 18.3
2020-Jul-08 01:31 143 1 gusting 3 18.3
2020-Jul-08 01:21 108 1 gusting 3 18.3
2020-Jul-08 01:11 112 2 gusting 4 18.3
2020-Jul-08 01:01 164 2 gusting 4 18.3
2020-Jul-08 00:51 178 1 gusting 3 17.8
2020-Jul-08 00:41 176 1 gusting 3 18.3
2020-Jul-08 00:31 133 3 gusting 7 17.8
2020-Jul-08 00:21 138 2 gusting 5 17.8
2020-Jul-08 00:11 139 3 gusting 5 17.8
2020-Jul-08 00:01 110 3 gusting 5 17.8
2020-Jul-07 23:51 147 2 gusting 5 17.8
2020-Jul-07 23:41 145 3 gusting 6 18.3
2020-Jul-07 23:31 123 3 gusting 6 18.3
2020-Jul-07 23:21 147 4 gusting 7 18.3
2020-Jul-07 23:11 147 3 gusting 5 18.9
2020-Jul-07 23:01 135 3 gusting 6 19.4
2020-Jul-07 22:51 144 2 gusting 6 19.4
2020-Jul-07 22:41 171 3 gusting 6 18.9
2020-Jul-07 22:31 149 3 gusting 6 19.4
2020-Jul-07 22:21 162 4 gusting 5 19.4
2020-Jul-07 22:11 128 3 gusting 6 19.4
2020-Jul-07 22:01 129 4 gusting 6 19.4
2020-Jul-07 21:51 129 3 gusting 6 19.4
2020-Jul-07 21:41 148 3 gusting 5 19.4
2020-Jul-07 21:31 114 4 gusting 6 18.9
2020-Jul-07 21:21 177 3 gusting 6 19.4
2020-Jul-07 21:01 108 2 gusting 5 18.9
2020-Jul-07 20:51 106 3 gusting 5 19.4
2020-Jul-07 20:41 118 2 gusting 5 18.3
2020-Jul-07 20:31 138 2 gusting 5 17.8
2020-Jul-07 20:21 127 3 gusting 5 17.8
2020-Jul-07 17:11 105 4 gusting 6 15.6
2020-Jul-07 17:01 104 3 gusting 6 16.1
2020-Jul-07 16:51 103 2 gusting 6 16.1
2020-Jul-07 16:41 105 3 gusting 6 16.1
2020-Jul-07 16:31 095 4 gusting 6 15.6
2020-Jul-07 16:21 091 3 gusting 6 15.0
2020-Jul-07 16:11 119 3 gusting 6 15.0
2020-Jul-07 16:01 126 4 gusting 6 14.4
2020-Jul-07 13:11 045 12.8
2020-Jul-07 13:01 338 12.8
2020-Jul-07 12:51 225 12.8
2020-Jul-07 12:41 050 12.8
2020-Jul-07 12:31 077 0 gusting 3 12.8
2020-Jul-07 12:21 088 1 gusting 4 13.3
2020-Jul-07 12:11 088 2 gusting 5 13.3
2020-Jul-07 12:01 080 1 gusting 5 13.3
2020-Jul-07 11:51 082 1 gusting 4 13.3
2020-Jul-07 11:41 048 0 gusting 2 13.3
2020-Jul-07 11:31 065 0 gusting 2 13.3
2020-Jul-07 11:21 074 1 gusting 3 13.3
2020-Jul-07 11:11 094 4 gusting 7 13.3
2020-Jul-07 11:01 106 3 gusting 6 13.9
2020-Jul-07 10:51 088 2 gusting 6 13.9
2020-Jul-07 10:41 081 0 gusting 2 13.9
2020-Jul-07 10:31 089 1 gusting 5 14.4
2020-Jul-07 10:21 090 2 gusting 5 14.4
2020-Jul-07 10:11 083 2 gusting 6 14.4
2020-Jul-07 10:01 078 1 gusting 3 14.4
2020-Jul-07 09:51 053 0 gusting 2 14.4
2020-Jul-07 09:41 083 1 gusting 3 14.4
2020-Jul-07 09:31 083 1 gusting 3 14.4
2020-Jul-07 09:21 098 1 gusting 3 14.4
2020-Jul-07 09:11 107 2 gusting 4 14.4
2020-Jul-07 09:01 094 1 gusting 4 14.4
2020-Jul-07 08:51 103 2 gusting 4 14.4
2020-Jul-07 08:41 102 2 gusting 5 14.4
2020-Jul-07 08:31 104 2 gusting 5 14.4
2020-Jul-07 08:21 093 2 gusting 5 15.0
2020-Jul-07 08:11 097 2 gusting 4 15.0
2020-Jul-07 08:01 102 1 gusting 4 15.0
2020-Jul-07 07:51 111 2 gusting 3 15.0
2020-Jul-07 07:41 089 1 gusting 3 15.0
2020-Jul-07 07:31 090 1 gusting 3 15.0
2020-Jul-07 07:21 099 1 gusting 3 15.0
2020-Jul-07 07:11 091 1 gusting 3 15.0
2020-Jul-07 07:01 086 1 gusting 3 15.0
2020-Jul-07 06:51 106 1 gusting 3 15.0
2020-Jul-07 06:41 087 1 gusting 4 15.0
2020-Jul-07 06:31 106 3 gusting 5 15.0
2020-Jul-07 06:21 087 2 gusting 4 15.6
2020-Jul-07 06:11 102 2 gusting 4 15.6
2020-Jul-07 06:01 096 2 gusting 4 16.1
2020-Jul-07 05:51 093 1 gusting 4 16.1
2020-Jul-07 05:41 097 2 gusting 5 16.1
2020-Jul-07 05:31 111 2 gusting 5 16.7
2020-Jul-07 05:21 095 2 gusting 3 16.7
2020-Jul-07 05:11 068 0 gusting 3 16.7
2020-Jul-07 05:01 045 16.7
2020-Jul-07 04:51 054 16.7
2020-Jul-07 04:41 087 0 gusting 1 16.7
2020-Jul-07 04:31 083 0 gusting 2 16.7
2020-Jul-07 04:21 096 1 gusting 2 17.2
2020-Jul-07 04:11 094 1 gusting 4 17.2
2020-Jul-07 04:01 087 1 gusting 3 17.2
2020-Jul-07 03:51 127 2 gusting 4 17.8
2020-Jul-07 03:41 119 2 gusting 3 17.8
2020-Jul-07 03:31 120 2 gusting 4 18.3
2020-Jul-07 03:21 097 2 gusting 5 17.8
2020-Jul-07 03:11 106 1 gusting 3 18.3
2020-Jul-07 03:01 159 2 gusting 4 18.3
2020-Jul-07 02:51 177 2 gusting 5 18.9
2020-Jul-07 02:41 156 2 gusting 4 18.9
2020-Jul-07 02:31 136 3 gusting 5 18.9
2020-Jul-07 02:21 114 3 gusting 5 19.4
2020-Jul-07 02:11 160 3 gusting 5 20.0
2020-Jul-07 02:01 127 3 gusting 5 20.0
2020-Jul-07 01:51 118 3 gusting 4 20.0
2020-Jul-07 01:41 120 3 gusting 5 20.6
2020-Jul-07 01:31 127 3 gusting 5 21.1
2020-Jul-07 01:21 156 3 gusting 5 20.6
2020-Jul-07 01:11 163 3 gusting 5 21.1
2020-Jul-07 01:01 148 3 gusting 6 20.6
2020-Jul-07 00:51 150 4 gusting 6 20.6
2020-Jul-07 00:41 135 3 gusting 6 21.1
2020-Jul-07 00:31 159 4 gusting 6 21.1
2020-Jul-07 00:21 151 3 gusting 6 21.7
2020-Jul-07 00:11 172 4 gusting 6 21.1
2020-Jul-07 00:01 157 3 gusting 5 20.6
2020-Jul-06 23:51 122 3 gusting 6 21.1
2020-Jul-06 23:41 135 4 gusting 6 20.6
2020-Jul-06 23:31 183 3 gusting 6 20.6
2020-Jul-06 23:21 151 4 gusting 6 20.0
2020-Jul-06 23:11 157 4 gusting 7 19.4
2020-Jul-06 23:01 157 5 gusting 7 19.4
2020-Jul-06 22:51 124 5 gusting 7 20.0
2020-Jul-06 22:41 139 4 gusting 6 20.6
2020-Jul-06 22:31 154 5 gusting 7 20.6
2020-Jul-06 22:21 141 4 gusting 6 20.6
2020-Jul-06 22:11 156 5 gusting 7 20.0
2020-Jul-06 22:01 160 5 gusting 7 20.0
2020-Jul-06 21:51 144 5 gusting 7 19.4
2020-Jul-06 21:41 158 5 gusting 6 20.0
2020-Jul-06 21:31 144 4 gusting 6 21.1
2020-Jul-06 21:21 153 5 gusting 7 20.0
2020-Jul-06 21:11 145 5 gusting 9 20.0
2020-Jul-06 21:01 139 5 gusting 6 21.7
2020-Jul-06 20:51 152 4 gusting 6 20.6
2020-Jul-06 20:41 124 4 gusting 6 21.1
2020-Jul-06 20:31 137 5 gusting 6 20.0
2020-Jul-06 20:21 122 4 gusting 6 21.7
2020-Jul-06 20:11 152 4 gusting 8 20.6
2020-Jul-06 20:01 149 4 gusting 7 20.6
2020-Jul-06 19:51 184 4 gusting 6 20.0
2020-Jul-06 19:41 135 4 gusting 6 20.0
2020-Jul-06 19:31 127 4 gusting 7 20.0
2020-Jul-06 19:21 104 4 gusting 6 20.0
2020-Jul-06 19:11 108 4 gusting 6 20.0
2020-Jul-06 19:01 117 4 gusting 6 19.4
2020-Jul-06 18:51 149 4 gusting 6 18.9
2020-Jul-06 18:41 157 4 gusting 6 19.4
2020-Jul-06 18:31 153 4 gusting 6 19.4
2020-Jul-06 18:21 126 4 gusting 6 20.6
2020-Jul-06 18:11 109 4 gusting 6 18.9
2020-Jul-06 18:01 126 2 gusting 4 19.4
2020-Jul-06 17:51 154 3 gusting 4 17.2
2020-Jul-06 17:41 145 3 gusting 6 17.2
2020-Jul-06 17:31 109 3 gusting 6 17.2
2020-Jul-06 17:21 142 3 gusting 6 17.2
2020-Jul-06 17:11 154 3 gusting 5 17.8
2020-Jul-06 17:01 128 3 gusting 6 17.2
2020-Jul-06 16:51 119 3 gusting 6 17.2
2020-Jul-06 16:41 115 3 gusting 5 17.2
2020-Jul-06 16:31 128 4 gusting 6 17.2
2020-Jul-06 16:21 131 2 gusting 4 16.7
2020-Jul-06 16:11 105 4 gusting 6 16.1
2020-Jul-06 16:01 093 3 gusting 6 16.1
2020-Jul-06 15:51 110 5 gusting 6 15.6
2020-Jul-06 15:41 106 2 gusting 5 15.6
2020-Jul-06 15:31 102 2 gusting 5 15.0
2020-Jul-06 15:21 086 2 gusting 5 15.0
2020-Jul-06 15:11 100 2 gusting 5 15.0
2020-Jul-06 15:01 089 3 gusting 6 14.4
2020-Jul-06 14:51 111 2 gusting 5 14.4
2020-Jul-06 14:41 104 2 gusting 5 14.4
2020-Jul-06 14:31 095 2 gusting 6 14.4
2020-Jul-06 14:21 080 0 gusting 4 14.4
2020-Jul-06 14:11 085 0 gusting 2 13.9
2020-Jul-06 14:01 087 0 gusting 3 13.9
2020-Jul-06 13:51 090 1 gusting 3 13.3
2020-Jul-06 13:41 086 0 gusting 1 13.3
2020-Jul-06 13:31 080 0 gusting 2 13.3
2020-Jul-06 13:21 093 12.8
2020-Jul-06 13:11 080 12.8
2020-Jul-06 13:01 113 12.2
2020-Jul-06 12:51 092 0 gusting 2 12.2
2020-Jul-06 12:41 090 0 gusting 2 12.2
2020-Jul-06 12:31 097 11.7
2020-Jul-06 12:21 045 11.7
2020-Jul-06 12:11 045 11.7
2020-Jul-06 12:01 068 11.7
2020-Jul-06 11:51 068 11.7
2020-Jul-06 11:41 180 11.7
2020-Jul-06 11:31 023 11.7
2020-Jul-06 11:21 173 11.7
2020-Jul-06 11:11 090 12.2
2020-Jul-06 11:01 090 11.7
2020-Jul-06 10:51 202 12.2
2020-Jul-06 10:41 186 0 gusting 1 12.2
2020-Jul-06 10:31 292 12.2
2020-Jul-06 10:21 023 12.2
2020-Jul-06 10:11 023 12.2
2020-Jul-06 10:01 023 12.2
2020-Jul-06 09:51 008 12.2
2020-Jul-06 09:41 010 12.2
2020-Jul-06 09:31 045 12.8
2020-Jul-06 09:21 068 12.2
2020-Jul-06 09:11 023 12.8
2020-Jul-06 09:01 045 12.8
2020-Jul-06 08:51 023 12.8
2020-Jul-06 08:41 023 12.8
2020-Jul-06 08:31 023 12.8
2020-Jul-06 08:21 023 13.3
2020-Jul-06 08:11 023 13.3
2020-Jul-06 08:01 360 13.3
2020-Jul-06 07:51 023 13.3
2020-Jul-06 07:41 045 13.3
2020-Jul-06 07:31 023 13.3
2020-Jul-06 07:21 023 13.3
2020-Jul-06 07:11 023 13.9
2020-Jul-06 07:01 045 13.9
2020-Jul-06 06:51 045 13.9
2020-Jul-06 06:41 023 14.4
2020-Jul-06 06:31 023 14.4
2020-Jul-06 06:21 051 14.4
2020-Jul-06 06:11 023 14.4
2020-Jul-06 06:01 045 14.4
2020-Jul-06 05:51 023 15.0
2020-Jul-06 05:41 068 15.0
2020-Jul-06 05:31 045 15.6
2020-Jul-06 05:21 045 15.6
2020-Jul-06 05:11 023 16.1
2020-Jul-06 05:01 023 16.7